Terminal Aerodrome Forecast
Issued by NWS

Home | Current Version | Previous Version | Text Only | Print | Product List | Glossary On
Versions: 1 2 3 4 5 6 7 8 9 10 11 12 13
000
FTUS41 KCAR 191120
TAFBHB
TAF
KBHB 191120Z 1912/2012 36004KT P6SM SCT025
      TEMPO 1912/1914 BKN025
     FM191700 32004KT P6SM SCT250
     FM192200 VRB05KT P6SM SKC
      AMD LTD TO CLD VIS AND WIND=

USA.gov is the U.S. government's official web portal to all federal, state and local government web resources and services.